sensor_id;sensor_type;location;lat;lon;timestamp;P1;durP1;ratioP1;P2;durP2;ratioP2
10661;SDS011;5379;51.034;7.006;2024-03-06T00:00:49;9.47;;;8.57;;
10661;SDS011;5379;51.034;7.006;2024-03-06T00:03:15;12.13;;;8.80;;
10661;SDS011;5379;51.034;7.006;2024-03-06T00:05:42;9.73;;;8.73;;
10661;SDS011;5379;51.034;7.006;2024-03-06T00:08:09;8.93;;;8.03;;
10661;SDS011;5379;51.034;7.006;2024-03-06T00:10:36;9.77;;;8.87;;
10661;SDS011;5379;51.034;7.006;2024-03-06T00:13:03;8.93;;;7.67;;
10661;SDS011;5379;51.034;7.006;2024-03-06T00:15:31;9.20;;;8.17;;
10661;SDS011;5379;51.034;7.006;2024-03-06T00:17:58;8.33;;;7.53;;
10661;SDS011;5379;51.034;7.006;2024-03-06T00:20:26;10.13;;;8.30;;
10661;SDS011;5379;51.034;7.006;2024-03-06T00:22:53;9.77;;;8.87;;
10661;SDS011;5379;51.034;7.006;2024-03-06T00:25:20;12.07;;;8.70;;
10661;SDS011;5379;51.034;7.006;2024-03-06T00:27:47;9.90;;;8.73;;
10661;SDS011;5379;51.034;7.006;2024-03-06T00:30:14;10.87;;;9.20;;
10661;SDS011;5379;51.034;7.006;2024-03-06T00:32:42;9.73;;;8.80;;
10661;SDS011;5379;51.034;7.006;2024-03-06T00:35:09;12.57;;;9.20;;
10661;SDS011;5379;51.034;7.006;2024-03-06T00:37:37;10.43;;;9.37;;
10661;SDS011;5379;51.034;7.006;2024-03-06T00:40:04;9.80;;;8.80;;
10661;SDS011;5379;51.034;7.006;2024-03-06T00:42:32;8.83;;;8.00;;
10661;SDS011;5379;51.034;7.006;2024-03-06T00:45:00;9.53;;;8.73;;
10661;SDS011;5379;51.034;7.006;2024-03-06T00:47:27;10.60;;;9.50;;
10661;SDS011;5379;51.034;7.006;2024-03-06T00:49:55;11.43;;;9.23;;
10661;SDS011;5379;51.034;7.006;2024-03-06T00:52:22;13.80;;;9.37;;
10661;SDS011;5379;51.034;7.006;2024-03-06T00:54:49;16.27;;;9.97;;
10661;SDS011;5379;51.034;7.006;2024-03-06T00:57:16;12.40;;;9.90;;
10661;SDS011;5379;51.034;7.006;2024-03-06T00:59:44;10.83;;;9.23;;
10661;SDS011;5379;51.034;7.006;2024-03-06T05:32:16;13.37;;;9.30;;
10661;SDS011;5379;51.034;7.006;2024-03-06T05:34:43;9.40;;;8.60;;
10661;SDS011;5379;51.034;7.006;2024-03-06T05:37:10;10.00;;;8.93;;
10661;SDS011;5379;51.034;7.006;2024-03-06T05:39:37;10.73;;;8.60;;
10661;SDS011;5379;51.034;7.006;2024-03-06T05:42:04;8.60;;;7.80;;
10661;SDS011;5379;51.034;7.006;2024-03-06T05:44:31;9.83;;;7.67;;
10661;SDS011;5379;51.034;7.006;2024-03-06T05:46:59;8.70;;;7.83;;
10661;SDS011;5379;51.034;7.006;2024-03-06T05:49:28;9.70;;;8.30;;
10661;SDS011;5379;51.034;7.006;2024-03-06T05:51:55;10.47;;;9.00;;
10661;SDS011;5379;51.034;7.006;2024-03-06T05:54:22;8.57;;;7.87;;
10661;SDS011;5379;51.034;7.006;2024-03-06T05:56:49;9.53;;;8.57;;
10661;SDS011;5379;51.034;7.006;2024-03-06T05:59:18;9.33;;;8.27;;
10661;SDS011;5379;51.034;7.006;2024-03-06T06:01:46;9.37;;;8.37;;
10661;SDS011;5379;51.034;7.006;2024-03-06T06:04:13;9.20;;;8.30;;
10661;SDS011;5379;51.034;7.006;2024-03-06T06:06:42;9.90;;;8.77;;
10661;SDS011;5379;51.034;7.006;2024-03-06T06:09:09;8.80;;;8.00;;
10661;SDS011;5379;51.034;7.006;2024-03-06T06:11:40;7.93;;;7.13;;
10661;SDS011;5379;51.034;7.006;2024-03-06T06:14:08;15.70;;;9.93;;
10661;SDS011;5379;51.034;7.006;2024-03-06T06:16:35;11.00;;;9.10;;
10661;SDS011;5379;51.034;7.006;2024-03-06T06:19:02;8.90;;;8.10;;
10661;SDS011;5379;51.034;7.006;2024-03-06T06:21:30;10.17;;;7.93;;
10661;SDS011;5379;51.034;7.006;2024-03-06T06:23:59;10.80;;;8.33;;
10661;SDS011;5379;51.034;7.006;2024-03-06T06:26:26;8.37;;;6.87;;
10661;SDS011;5379;51.034;7.006;2024-03-06T06:28:53;8.33;;;7.50;;
10661;SDS011;5379;51.034;7.006;2024-03-06T06:31:20;8.57;;;7.07;;
10661;SDS011;5379;51.034;7.006;2024-03-06T06:33:48;8.33;;;7.53;;
10661;SDS011;5379;51.034;7.006;2024-03-06T06:36:16;7.87;;;7.10;;
10661;SDS011;5379;51.034;7.006;2024-03-06T06:38:44;6.13;;;5.67;;
10661;SDS011;5379;51.034;7.006;2024-03-06T06:41:13;12.37;;;6.87;;
10661;SDS011;5379;51.034;7.006;2024-03-06T06:43:40;8.37;;;7.47;;
10661;SDS011;5379;51.034;7.006;2024-03-06T06:46:07;10.20;;;7.70;;
10661;SDS011;5379;51.034;7.006;2024-03-06T06:48:34;8.53;;;7.17;;
10661;SDS011;5379;51.034;7.006;2024-03-06T06:51:02;8.03;;;7.33;;
10661;SDS011;5379;51.034;7.006;2024-03-06T06:53:29;8.20;;;7.33;;
10661;SDS011;5379;51.034;7.006;2024-03-06T06:55:56;6.77;;;6.23;;
10661;SDS011;5379;51.034;7.006;2024-03-06T06:58:24;7.47;;;6.80;;
10661;SDS011;5379;51.034;7.006;2024-03-06T07:00:53;6.97;;;6.27;;
10661;SDS011;5379;51.034;7.006;2024-03-06T07:03:20;6.80;;;6.20;;
10661;SDS011;5379;51.034;7.006;2024-03-06T07:05:48;7.90;;;5.93;;
10661;SDS011;5379;51.034;7.006;2024-03-06T07:08:15;6.23;;;5.73;;
10661;SDS011;5379;51.034;7.006;2024-03-06T07:10:42;6.10;;;5.70;;
10661;SDS011;5379;51.034;7.006;2024-03-06T07:13:10;6.73;;;6.07;;
10661;SDS011;5379;51.034;7.006;2024-03-06T07:15:38;7.23;;;6.53;;
10661;SDS011;5379;51.034;7.006;2024-03-06T07:18:06;14.60;;;6.03;;
10661;SDS011;5379;51.034;7.006;2024-03-06T07:20:32;8.50;;;6.53;;
10661;SDS011;5379;51.034;7.006;2024-03-06T07:23:00;9.53;;;6.63;;
10661;SDS011;5379;51.034;7.006;2024-03-06T07:25:27;6.43;;;5.90;;
10661;SDS011;5379;51.034;7.006;2024-03-06T07:27:53;6.70;;;6.10;;
10661;SDS011;5379;51.034;7.006;2024-03-06T07:30:20;7.83;;;6.27;;
10661;SDS011;5379;51.034;7.006;2024-03-06T07:32:49;8.10;;;7.30;;
10661;SDS011;5379;51.034;7.006;2024-03-06T07:35:18;6.77;;;6.27;;
10661;SDS011;5379;51.034;7.006;2024-03-06T07:37:45;6.67;;;6.07;;
10661;SDS011;5379;51.034;7.006;2024-03-06T07:40:12;7.30;;;6.70;;
10661;SDS011;5379;51.034;7.006;2024-03-06T07:42:39;7.50;;;6.63;;
10661;SDS011;5379;51.034;7.006;2024-03-06T07:45:06;7.40;;;6.77;;
10661;SDS011;5379;51.034;7.006;2024-03-06T07:47:34;7.80;;;7.10;;
10661;SDS011;5379;51.034;7.006;2024-03-06T07:50:04;6.93;;;6.27;;
10661;SDS011;5379;51.034;7.006;2024-03-06T07:52:32;5.93;;;5.43;;
10661;SDS011;5379;51.034;7.006;2024-03-06T07:55:01;6.20;;;5.60;;
10661;SDS011;5379;51.034;7.006;2024-03-06T07:57:28;6.73;;;6.07;;
10661;SDS011;5379;51.034;7.006;2024-03-06T07:59:55;7.10;;;6.00;;
10661;SDS011;5379;51.034;7.006;2024-03-06T08:02:22;7.23;;;6.50;;
10661;SDS011;5379;51.034;7.006;2024-03-06T08:04:49;7.97;;;6.40;;
10661;SDS011;5379;51.034;7.006;2024-03-06T08:07:17;7.10;;;6.50;;
10661;SDS011;5379;51.034;7.006;2024-03-06T08:09:45;12.17;;;9.97;;
10661;SDS011;5379;51.034;7.006;2024-03-06T08:12:12;12.10;;;10.30;;
10661;SDS011;5379;51.034;7.006;2024-03-06T08:14:39;12.80;;;11.37;;
10661;SDS011;5379;51.034;7.006;2024-03-06T08:17:06;23.07;;;13.47;;
10661;SDS011;5379;51.034;7.006;2024-03-06T08:19:33;17.37;;;11.50;;
10661;SDS011;5379;51.034;7.006;2024-03-06T08:22:00;18.40;;;13.67;;
10661;SDS011;5379;51.034;7.006;2024-03-06T08:24:29;15.50;;;11.23;;
10661;SDS011;5379;51.034;7.006;2024-03-06T08:26:56;12.87;;;10.20;;
10661;SDS011;5379;51.034;7.006;2024-03-06T08:29:23;11.93;;;10.60;;
10661;SDS011;5379;51.034;7.006;2024-03-06T08:31:50;14.67;;;10.60;;
10661;SDS011;5379;51.034;7.006;2024-03-06T08:34:18;13.00;;;10.90;;
10661;SDS011;5379;51.034;7.006;2024-03-06T08:36:47;11.47;;;9.90;;
10661;SDS011;5379;51.034;7.006;2024-03-06T08:39:14;16.43;;;11.50;;
10661;SDS011;5379;51.034;7.006;2024-03-06T08:41:43;28.03;;;11.07;;
10661;SDS011;5379;51.034;7.006;2024-03-06T08:44:10;12.20;;;10.20;;
10661;SDS011;5379;51.034;7.006;2024-03-06T08:46:37;16.67;;;9.80;;
10661;SDS011;5379;51.034;7.006;2024-03-06T08:49:03;17.93;;;12.03;;
10661;SDS011;5379;51.034;7.006;2024-03-06T08:51:30;17.57;;;11.80;;
10661;SDS011;5379;51.034;7.006;2024-03-06T08:53:57;15.20;;;11.90;;
10661;SDS011;5379;51.034;7.006;2024-03-06T08:56:25;13.70;;;11.80;;
10661;SDS011;5379;51.034;7.006;2024-03-06T08:58:54;12.57;;;11.00;;
10661;SDS011;5379;51.034;7.006;2024-03-06T09:01:21;10.37;;;9.33;;
10661;SDS011;5379;51.034;7.006;2024-03-06T09:03:48;13.77;;;10.97;;
10661;SDS011;5379;51.034;7.006;2024-03-06T09:06:15;14.43;;;11.97;;
10661;SDS011;5379;51.034;7.006;2024-03-06T09:08:42;16.10;;;11.60;;
10661;SDS011;5379;51.034;7.006;2024-03-06T09:11:09;14.03;;;11.63;;
10661;SDS011;5379;51.034;7.006;2024-03-06T09:13:37;19.63;;;14.47;;
10661;SDS011;5379;51.034;7.006;2024-03-06T09:16:06;20.53;;;13.13;;
10661;SDS011;5379;51.034;7.006;2024-03-06T09:18:34;11.60;;;9.97;;
10661;SDS011;5379;51.034;7.006;2024-03-06T09:21:01;12.93;;;11.43;;
10661;SDS011;5379;51.034;7.006;2024-03-06T09:23:28;20.90;;;12.10;;
10661;SDS011;5379;51.034;7.006;2024-03-06T09:25:57;18.83;;;12.27;;
10661;SDS011;5379;51.034;7.006;2024-03-06T09:28:24;22.70;;;10.10;;
10661;SDS011;5379;51.034;7.006;2024-03-06T09:30:51;12.87;;;11.13;;
10661;SDS011;5379;51.034;7.006;2024-03-06T09:33:19;12.00;;;10.80;;
10661;SDS011;5379;51.034;7.006;2024-03-06T09:35:47;14.33;;;12.20;;
10661;SDS011;5379;51.034;7.006;2024-03-06T09:38:15;11.73;;;10.50;;
10661;SDS011;5379;51.034;7.006;2024-03-06T09:40:42;13.23;;;11.80;;
10661;SDS011;5379;51.034;7.006;2024-03-06T09:43:09;15.90;;;10.90;;
10661;SDS011;5379;51.034;7.006;2024-03-06T09:45:36;15.87;;;13.40;;
10661;SDS011;5379;51.034;7.006;2024-03-06T09:48:04;12.63;;;11.37;;
10661;SDS011;5379;51.034;7.006;2024-03-06T09:50:34;12.20;;;10.97;;
10661;SDS011;5379;51.034;7.006;2024-03-06T09:53:06;13.23;;;11.83;;
10661;SDS011;5379;51.034;7.006;2024-03-06T09:55:36;12.67;;;11.37;;
10661;SDS011;5379;51.034;7.006;2024-03-06T09:58:03;18.00;;;14.03;;
10661;SDS011;5379;51.034;7.006;2024-03-06T10:00:30;14.77;;;13.13;;
10661;SDS011;5379;51.034;7.006;2024-03-06T10:02:59;19.10;;;13.97;;
10661;SDS011;5379;51.034;7.006;2024-03-06T10:05:27;12.40;;;11.10;;
10661;SDS011;5379;51.034;7.006;2024-03-06T10:07:56;16.37;;;12.87;;
10661;SDS011;5379;51.034;7.006;2024-03-06T10:10:24;20.03;;;14.20;;
10661;SDS011;5379;51.034;7.006;2024-03-06T10:12:51;19.80;;;13.00;;
10661;SDS011;5379;51.034;7.006;2024-03-06T10:15:19;13.27;;;11.87;;
10661;SDS011;5379;51.034;7.006;2024-03-06T10:17:46;21.87;;;15.37;;
10661;SDS011;5379;51.034;7.006;2024-03-06T10:20:20;14.10;;;11.53;;
10661;SDS011;5379;51.034;7.006;2024-03-06T10:22:48;18.67;;;15.53;;
10661;SDS011;5379;51.034;7.006;2024-03-06T10:25:19;13.00;;;11.30;;
10661;SDS011;5379;51.034;7.006;2024-03-06T10:27:47;24.97;;;15.17;;
10661;SDS011;5379;51.034;7.006;2024-03-06T10:30:33;16.63;;;12.97;;
10661;SDS011;5379;51.034;7.006;2024-03-06T10:33:01;14.60;;;12.93;;
10661;SDS011;5379;51.034;7.006;2024-03-06T10:35:29;17.07;;;13.53;;
10661;SDS011;5379;51.034;7.006;2024-03-06T10:37:56;18.10;;;14.87;;
10661;SDS011;5379;51.034;7.006;2024-03-06T10:40:27;17.53;;;13.67;;
10661;SDS011;5379;51.034;7.006;2024-03-06T10:42:58;18.07;;;12.50;;
10661;SDS011;5379;51.034;7.006;2024-03-06T10:45:27;17.37;;;13.07;;
10661;SDS011;5379;51.034;7.006;2024-03-06T10:48:01;16.63;;;12.50;;
10661;SDS011;5379;51.034;7.006;2024-03-06T10:50:30;14.23;;;12.20;;
10661;SDS011;5379;51.034;7.006;2024-03-06T10:52:58;14.00;;;12.67;;
10661;SDS011;5379;51.034;7.006;2024-03-06T10:55:27;15.93;;;13.13;;
10661;SDS011;5379;51.034;7.006;2024-03-06T10:57:59;13.37;;;10.57;;
10661;SDS011;5379;51.034;7.006;2024-03-06T11:00:26;12.87;;;11.57;;
10661;SDS011;5379;51.034;7.006;2024-03-06T11:02:54;15.77;;;12.00;;
10661;SDS011;5379;51.034;7.006;2024-03-06T11:05:24;19.60;;;13.23;;
10661;SDS011;5379;51.034;7.006;2024-03-06T11:07:51;10.17;;;9.17;;
10661;SDS011;5379;51.034;7.006;2024-03-06T11:10:30;12.57;;;11.03;;
10661;SDS011;5379;51.034;7.006;2024-03-06T11:12:58;13.50;;;10.47;;
10661;SDS011;5379;51.034;7.006;2024-03-06T11:15:25;16.90;;;11.80;;
10661;SDS011;5379;51.034;7.006;2024-03-06T11:17:53;13.43;;;10.93;;
10661;SDS011;5379;51.034;7.006;2024-03-06T11:20:20;14.20;;;11.47;;
10661;SDS011;5379;51.034;7.006;2024-03-06T11:23:07;13.73;;;11.27;;
10661;SDS011;5379;51.034;7.006;2024-03-06T11:28:29;14.77;;;11.67;;
10661;SDS011;5379;51.034;7.006;2024-03-06T11:30:58;12.20;;;10.97;;
10661;SDS011;5379;51.034;7.006;2024-03-06T11:36:19;26.23;;;11.60;;
10661;SDS011;5379;51.034;7.006;2024-03-06T11:38:48;13.53;;;11.00;;
10661;SDS011;5379;51.034;7.006;2024-03-06T11:41:20;13.03;;;11.53;;
10661;SDS011;5379;51.034;7.006;2024-03-06T11:43:50;11.90;;;10.70;;
10661;SDS011;5379;51.034;7.006;2024-03-06T11:46:18;12.63;;;11.40;;
10661;SDS011;5379;51.034;7.006;2024-03-06T11:48:51;16.00;;;11.50;;
10661;SDS011;5379;51.034;7.006;2024-03-06T11:51:20;12.67;;;11.33;;
10661;SDS011;5379;51.034;7.006;2024-03-06T11:53:50;17.03;;;12.27;;
10661;SDS011;5379;51.034;7.006;2024-03-06T11:56:20;12.67;;;11.03;;
10661;SDS011;5379;51.034;7.006;2024-03-06T12:01:19;9.87;;;9.00;;
10661;SDS011;5379;51.034;7.006;2024-03-06T12:03:46;10.03;;;9.10;;
10661;SDS011;5379;51.034;7.006;2024-03-06T12:06:13;10.63;;;9.37;;
10661;SDS011;5379;51.034;7.006;2024-03-06T12:08:42;17.20;;;10.70;;
10661;SDS011;5379;51.034;7.006;2024-03-06T12:11:08;8.67;;;7.83;;
10661;SDS011;5379;51.034;7.006;2024-03-06T12:13:37;8.10;;;7.40;;
10661;SDS011;5379;51.034;7.006;2024-03-06T12:16:04;11.97;;;8.43;;
10661;SDS011;5379;51.034;7.006;2024-03-06T12:18:32;8.13;;;7.40;;
10661;SDS011;5379;51.034;7.006;2024-03-06T12:21:00;8.70;;;7.83;;
10661;SDS011;5379;51.034;7.006;2024-03-06T12:23:28;7.60;;;6.93;;
10661;SDS011;5379;51.034;7.006;2024-03-06T12:26:02;10.33;;;8.47;;
10661;SDS011;5379;51.034;7.006;2024-03-06T12:28:30;8.07;;;7.27;;
10661;SDS011;5379;51.034;7.006;2024-03-06T12:30:58;8.73;;;7.73;;
10661;SDS011;5379;51.034;7.006;2024-03-06T12:33:30;8.70;;;7.90;;
10661;SDS011;5379;51.034;7.006;2024-03-06T12:36:00;7.80;;;6.67;;
10661;SDS011;5379;51.034;7.006;2024-03-06T12:38:31;8.10;;;6.73;;
10661;SDS011;5379;51.034;7.006;2024-03-06T12:40:58;7.27;;;5.80;;
10661;SDS011;5379;51.034;7.006;2024-03-06T12:43:26;5.30;;;4.80;;
10661;SDS011;5379;51.034;7.006;2024-03-06T12:45:53;4.53;;;3.90;;
10661;SDS011;5379;51.034;7.006;2024-03-06T12:48:23;6.13;;;3.53;;
10661;SDS011;5379;51.034;7.006;2024-03-06T12:50:51;3.77;;;3.27;;
10661;SDS011;5379;51.034;7.006;2024-03-06T12:53:19;7.47;;;3.60;;
10661;SDS011;5379;51.034;7.006;2024-03-06T12:55:46;2.90;;;2.70;;
10661;SDS011;5379;51.034;7.006;2024-03-06T12:58:14;3.73;;;3.30;;
10661;SDS011;5379;51.034;7.006;2024-03-06T13:00:41;3.67;;;3.37;;
10661;SDS011;5379;51.034;7.006;2024-03-06T13:03:08;4.20;;;3.80;;
10661;SDS011;5379;51.034;7.006;2024-03-06T13:05:37;3.70;;;3.40;;
10661;SDS011;5379;51.034;7.006;2024-03-06T13:08:04;4.80;;;4.40;;
10661;SDS011;5379;51.034;7.006;2024-03-06T13:10:31;8.13;;;7.13;;
10661;SDS011;5379;51.034;7.006;2024-03-06T13:12:58;4.40;;;4.10;;
10661;SDS011;5379;51.034;7.006;2024-03-06T13:15:25;11.97;;;4.93;;
10661;SDS011;5379;51.034;7.006;2024-03-06T13:17:52;4.93;;;4.53;;
10661;SDS011;5379;51.034;7.006;2024-03-06T13:20:18;4.80;;;4.03;;
10661;SDS011;5379;51.034;7.006;2024-03-06T13:22:47;5.07;;;4.07;;
10661;SDS011;5379;51.034;7.006;2024-03-06T13:25:14;5.23;;;4.27;;
10661;SDS011;5379;51.034;7.006;2024-03-06T13:27:40;4.03;;;3.73;;
10661;SDS011;5379;51.034;7.006;2024-03-06T13:30:08;7.63;;;5.47;;
10661;SDS011;5379;51.034;7.006;2024-03-06T13:32:35;5.27;;;4.73;;
10661;SDS011;5379;51.034;7.006;2024-03-06T13:35:02;4.60;;;4.20;;
10661;SDS011;5379;51.034;7.006;2024-03-06T13:37:31;3.80;;;3.50;;
10661;SDS011;5379;51.034;7.006;2024-03-06T13:40:00;4.13;;;3.73;;
10661;SDS011;5379;51.034;7.006;2024-03-06T13:42:28;4.17;;;3.77;;
10661;SDS011;5379;51.034;7.006;2024-03-06T13:44:55;4.07;;;3.77;;
10661;SDS011;5379;51.034;7.006;2024-03-06T13:47:22;5.13;;;4.23;;
10661;SDS011;5379;51.034;7.006;2024-03-06T13:49:49;3.93;;;3.63;;
10661;SDS011;5379;51.034;7.006;2024-03-06T13:52:15;4.30;;;3.57;;
10661;SDS011;5379;51.034;7.006;2024-03-06T13:54:45;3.80;;;3.40;;
10661;SDS011;5379;51.034;7.006;2024-03-06T13:57:15;3.60;;;3.00;;
10661;SDS011;5379;51.034;7.006;2024-03-06T13:59:42;3.60;;;3.30;;
10661;SDS011;5379;51.034;7.006;2024-03-06T14:02:09;4.40;;;3.40;;
10661;SDS011;5379;51.034;7.006;2024-03-06T14:04:36;4.10;;;3.00;;
10661;SDS011;5379;51.034;7.006;2024-03-06T14:07:03;3.77;;;3.13;;
10661;SDS011;5379;51.034;7.006;2024-03-06T14:09:30;4.67;;;3.17;;
10661;SDS011;5379;51.034;7.006;2024-03-06T14:11:57;4.30;;;3.63;;
10661;SDS011;5379;51.034;7.006;2024-03-06T14:14:25;3.93;;;3.47;;
10661;SDS011;5379;51.034;7.006;2024-03-06T14:16:52;3.70;;;3.40;;
10661;SDS011;5379;51.034;7.006;2024-03-06T14:19:18;4.13;;;3.73;;
10661;SDS011;5379;51.034;7.006;2024-03-06T14:21:46;5.23;;;4.00;;
10661;SDS011;5379;51.034;7.006;2024-03-06T14:24:13;4.60;;;4.00;;
10661;SDS011;5379;51.034;7.006;2024-03-06T14:26:40;7.13;;;4.00;;
10661;SDS011;5379;51.034;7.006;2024-03-06T14:29:07;3.67;;;3.37;;
10661;SDS011;5379;51.034;7.006;2024-03-06T14:31:36;5.53;;;4.23;;
10661;SDS011;5379;51.034;7.006;2024-03-06T14:34:03;4.03;;;3.73;;
10661;SDS011;5379;51.034;7.006;2024-03-06T14:36:29;3.80;;;3.40;;
10661;SDS011;5379;51.034;7.006;2024-03-06T14:38:57;4.97;;;3.57;;
10661;SDS011;5379;51.034;7.006;2024-03-06T14:41:24;5.47;;;3.73;;
10661;SDS011;5379;51.034;7.006;2024-03-06T14:43:51;6.33;;;4.53;;
10661;SDS011;5379;51.034;7.006;2024-03-06T14:46:19;6.40;;;3.87;;
10661;SDS011;5379;51.034;7.006;2024-03-06T14:48:47;5.07;;;4.40;;
10661;SDS011;5379;51.034;7.006;2024-03-06T14:51:14;4.17;;;3.77;;
10661;SDS011;5379;51.034;7.006;2024-03-06T14:53:41;6.47;;;4.03;;
10661;SDS011;5379;51.034;7.006;2024-03-06T14:56:08;3.17;;;2.97;;
10661;SDS011;5379;51.034;7.006;2024-03-06T14:58:36;3.83;;;3.53;;
10661;SDS011;5379;51.034;7.006;2024-03-06T15:01:03;4.43;;;4.07;;
10661;SDS011;5379;51.034;7.006;2024-03-06T15:03:30;5.13;;;4.63;;
10661;SDS011;5379;51.034;7.006;2024-03-06T15:05:58;8.37;;;4.27;;
10661;SDS011;5379;51.034;7.006;2024-03-06T15:08:26;13.87;;;3.80;;
10661;SDS011;5379;51.034;7.006;2024-03-06T15:10:52;6.00;;;3.80;;
10661;SDS011;5379;51.034;7.006;2024-03-06T15:13:20;2.90;;;2.70;;
10661;SDS011;5379;51.034;7.006;2024-03-06T15:15:48;4.13;;;3.23;;
10661;SDS011;5379;51.034;7.006;2024-03-06T15:18:16;6.50;;;3.90;;
10661;SDS011;5379;51.034;7.006;2024-03-06T15:20:44;4.60;;;4.07;;
10661;SDS011;5379;51.034;7.006;2024-03-06T15:23:12;4.33;;;3.90;;
10661;SDS011;5379;51.034;7.006;2024-03-06T15:25:40;6.17;;;4.47;;
10661;SDS011;5379;51.034;7.006;2024-03-06T15:28:08;4.13;;;3.80;;
10661;SDS011;5379;51.034;7.006;2024-03-06T15:30:36;7.77;;;5.27;;
10661;SDS011;5379;51.034;7.006;2024-03-06T15:33:03;7.73;;;5.30;;
10661;SDS011;5379;51.034;7.006;2024-03-06T15:35:30;7.13;;;5.53;;
10661;SDS011;5379;51.034;7.006;2024-03-06T15:37:57;7.23;;;5.50;;
10661;SDS011;5379;51.034;7.006;2024-03-06T15:40:25;5.70;;;5.10;;
10661;SDS011;5379;51.034;7.006;2024-03-06T15:42:52;5.33;;;4.87;;
10661;SDS011;5379;51.034;7.006;2024-03-06T15:45:19;9.23;;;6.10;;
10661;SDS011;5379;51.034;7.006;2024-03-06T15:47:47;8.87;;;6.60;;
10661;SDS011;5379;51.034;7.006;2024-03-06T15:50:14;7.50;;;6.80;;
10661;SDS011;5379;51.034;7.006;2024-03-06T15:52:41;7.53;;;6.30;;
10661;SDS011;5379;51.034;7.006;2024-03-06T15:55:08;11.17;;;6.87;;
10661;SDS011;5379;51.034;7.006;2024-03-06T15:57:37;6.80;;;6.13;;
10661;SDS011;5379;51.034;7.006;2024-03-06T16:00:04;8.37;;;7.33;;
10661;SDS011;5379;51.034;7.006;2024-03-06T16:02:34;10.43;;;7.57;;
10661;SDS011;5379;51.034;7.006;2024-03-06T16:05:01;10.87;;;7.67;;
10661;SDS011;5379;51.034;7.006;2024-03-06T16:07:29;15.20;;;7.73;;
10661;SDS011;5379;51.034;7.006;2024-03-06T16:09:57;8.13;;;7.33;;
10661;SDS011;5379;51.034;7.006;2024-03-06T16:12:23;10.03;;;7.50;;
10661;SDS011;5379;51.034;7.006;2024-03-06T16:14:52;9.50;;;8.57;;
10661;SDS011;5379;51.034;7.006;2024-03-06T16:17:19;17.47;;;9.33;;
10661;SDS011;5379;51.034;7.006;2024-03-06T16:19:46;9.80;;;8.80;;
10661;SDS011;5379;51.034;7.006;2024-03-06T16:22:13;11.00;;;7.87;;
10661;SDS011;5379;51.034;7.006;2024-03-06T16:24:40;11.30;;;8.30;;
10661;SDS011;5379;51.034;7.006;2024-03-06T16:27:07;11.03;;;7.90;;
10661;SDS011;5379;51.034;7.006;2024-03-06T16:29:34;8.17;;;7.37;;
10661;SDS011;5379;51.034;7.006;2024-03-06T16:32:02;15.20;;;9.20;;
10661;SDS011;5379;51.034;7.006;2024-03-06T16:34:30;9.57;;;8.20;;
10661;SDS011;5379;51.034;7.006;2024-03-06T16:36:58;19.47;;;9.33;;
10661;SDS011;5379;51.034;7.006;2024-03-06T16:39:26;10.93;;;8.40;;
10661;SDS011;5379;51.034;7.006;2024-03-06T16:41:53;9.57;;;8.63;;
10661;SDS011;5379;51.034;7.006;2024-03-06T16:44:20;15.07;;;9.73;;
10661;SDS011;5379;51.034;7.006;2024-03-06T16:46:47;8.97;;;8.07;;
10661;SDS011;5379;51.034;7.006;2024-03-06T16:49:16;11.70;;;8.57;;
10661;SDS011;5379;51.034;7.006;2024-03-06T16:51:43;10.43;;;8.80;;
10661;SDS011;5379;51.034;7.006;2024-03-06T16:54:10;12.27;;;8.20;;
10661;SDS011;5379;51.034;7.006;2024-03-06T16:56:38;9.03;;;8.00;;
10661;SDS011;5379;51.034;7.006;2024-03-06T16:59:05;14.10;;;8.50;;
10661;SDS011;5379;51.034;7.006;2024-03-06T17:01:33;11.60;;;8.17;;
10661;SDS011;5379;51.034;7.006;2024-03-06T17:04:00;9.67;;;8.60;;
10661;SDS011;5379;51.034;7.006;2024-03-06T17:06:28;11.37;;;8.73;;
10661;SDS011;5379;51.034;7.006;2024-03-06T17:08:56;10.23;;;8.07;;
10661;SDS011;5379;51.034;7.006;2024-03-06T17:11:23;8.73;;;7.87;;
10661;SDS011;5379;51.034;7.006;2024-03-06T17:13:50;9.43;;;7.90;;
10661;SDS011;5379;51.034;7.006;2024-03-06T17:16:17;8.93;;;7.70;;
10661;SDS011;5379;51.034;7.006;2024-03-06T17:18:44;11.87;;;8.70;;
10661;SDS011;5379;51.034;7.006;2024-03-06T17:21:11;15.80;;;8.07;;
10661;SDS011;5379;51.034;7.006;2024-03-06T17:23:41;10.33;;;9.27;;
10661;SDS011;5379;51.034;7.006;2024-03-06T17:26:09;12.07;;;9.60;;
10661;SDS011;5379;51.034;7.006;2024-03-06T17:28:38;14.20;;;9.13;;
10661;SDS011;5379;51.034;7.006;2024-03-06T17:31:05;15.07;;;9.50;;
10661;SDS011;5379;51.034;7.006;2024-03-06T17:33:32;12.43;;;11.17;;
10661;SDS011;5379;51.034;7.006;2024-03-06T17:35:59;16.70;;;10.67;;
10661;SDS011;5379;51.034;7.006;2024-03-06T17:38:26;9.97;;;8.97;;
10661;SDS011;5379;51.034;7.006;2024-03-06T17:40:56;12.37;;;9.90;;
10661;SDS011;5379;51.034;7.006;2024-03-06T17:43:22;10.37;;;9.33;;
10661;SDS011;5379;51.034;7.006;2024-03-06T17:45:50;9.50;;;8.50;;
10661;SDS011;5379;51.034;7.006;2024-03-06T17:48:17;15.10;;;11.10;;
10661;SDS011;5379;51.034;7.006;2024-03-06T17:50:44;16.80;;;11.67;;
10661;SDS011;5379;51.034;7.006;2024-03-06T17:53:11;12.87;;;11.00;;
10661;SDS011;5379;51.034;7.006;2024-03-06T17:55:41;13.17;;;11.77;;
10661;SDS011;5379;51.034;7.006;2024-03-06T17:58:10;11.00;;;9.93;;
10661;SDS011;5379;51.034;7.006;2024-03-06T18:00:39;16.27;;;13.13;;
10661;SDS011;5379;51.034;7.006;2024-03-06T18:03:07;15.27;;;12.87;;
10661;SDS011;5379;51.034;7.006;2024-03-06T18:05:35;15.83;;;12.70;;
10661;SDS011;5379;51.034;7.006;2024-03-06T18:08:02;13.93;;;12.40;;
10661;SDS011;5379;51.034;7.006;2024-03-06T18:10:29;15.13;;;13.03;;
10661;SDS011;5379;51.034;7.006;2024-03-06T18:12:58;17.67;;;13.73;;
10661;SDS011;5379;51.034;7.006;2024-03-06T18:15:26;14.60;;;12.43;;
10661;SDS011;5379;51.034;7.006;2024-03-06T18:17:53;17.77;;;15.20;;
10661;SDS011;5379;51.034;7.006;2024-03-06T18:20:21;14.77;;;12.73;;
10661;SDS011;5379;51.034;7.006;2024-03-06T18:22:49;20.30;;;16.50;;
10661;SDS011;5379;51.034;7.006;2024-03-06T18:25:17;20.10;;;14.60;;
10661;SDS011;5379;51.034;7.006;2024-03-06T18:27:44;17.10;;;13.60;;
10661;SDS011;5379;51.034;7.006;2024-03-06T18:30:11;17.37;;;14.70;;
10661;SDS011;5379;51.034;7.006;2024-03-06T18:32:40;17.47;;;13.63;;
10661;SDS011;5379;51.034;7.006;2024-03-06T18:35:07;20.33;;;14.83;;
10661;SDS011;5379;51.034;7.006;2024-03-06T18:37:34;20.83;;;15.10;;
10661;SDS011;5379;51.034;7.006;2024-03-06T18:40:01;20.60;;;14.70;;
10661;SDS011;5379;51.034;7.006;2024-03-06T18:42:29;15.33;;;13.23;;
10661;SDS011;5379;51.034;7.006;2024-03-06T18:44:56;21.80;;;12.87;;
10661;SDS011;5379;51.034;7.006;2024-03-06T18:47:23;15.23;;;13.07;;
10661;SDS011;5379;51.034;7.006;2024-03-06T18:49:52;14.50;;;12.00;;
10661;SDS011;5379;51.034;7.006;2024-03-06T18:52:19;15.07;;;12.77;;
10661;SDS011;5379;51.034;7.006;2024-03-06T18:54:46;23.30;;;14.87;;
10661;SDS011;5379;51.034;7.006;2024-03-06T18:57:13;12.10;;;10.90;;
10661;SDS011;5379;51.034;7.006;2024-03-06T18:59:41;17.20;;;13.30;;
10661;SDS011;5379;51.034;7.006;2024-03-06T19:02:09;15.30;;;10.93;;
10661;SDS011;5379;51.034;7.006;2024-03-06T19:04:36;17.80;;;14.57;;
10661;SDS011;5379;51.034;7.006;2024-03-06T19:07:05;17.50;;;13.70;;
10661;SDS011;5379;51.034;7.006;2024-03-06T19:09:32;17.27;;;14.93;;
10661;SDS011;5379;51.034;7.006;2024-03-06T19:11:59;15.73;;;12.77;;
10661;SDS011;5379;51.034;7.006;2024-03-06T19:14:27;15.17;;;13.50;;
10661;SDS011;5379;51.034;7.006;2024-03-06T19:16:54;19.63;;;15.37;;
10661;SDS011;5379;51.034;7.006;2024-03-06T19:19:21;17.53;;;15.07;;
10661;SDS011;5379;51.034;7.006;2024-03-06T19:21:48;13.80;;;11.27;;
10661;SDS011;5379;51.034;7.006;2024-03-06T19:24:20;13.50;;;12.10;;
10661;SDS011;5379;51.034;7.006;2024-03-06T19:26:47;18.17;;;13.47;;
10661;SDS011;5379;51.034;7.006;2024-03-06T19:29:14;13.07;;;11.13;;
10661;SDS011;5379;51.034;7.006;2024-03-06T19:31:41;16.87;;;11.70;;